sensor_id;sensor_type;location;lat;lon;timestamp;P1;durP1;ratioP1;P2;durP2;ratioP2
35679;SDS011;21803;53.586;10.040;2022-10-31T00:01:17;3.38;;;2.50;;
35679;SDS011;21803;53.586;10.040;2022-10-31T00:03:43;3.33;;;2.70;;
35679;SDS011;21803;53.586;10.040;2022-10-31T00:06:08;3.70;;;2.40;;
35679;SDS011;21803;53.586;10.040;2022-10-31T00:08:34;3.72;;;2.38;;
35679;SDS011;21803;53.586;10.040;2022-10-31T00:11:00;2.47;;;2.20;;
35679;SDS011;21803;53.586;10.040;2022-10-31T00:13:25;2.67;;;2.20;;
35679;SDS011;21803;53.586;10.040;2022-10-31T00:15:51;3.42;;;2.63;;
35679;SDS011;21803;53.586;10.040;2022-10-31T00:18:16;2.58;;;2.38;;
35679;SDS011;21803;53.586;10.040;2022-10-31T00:20:42;2.90;;;2.50;;
35679;SDS011;21803;53.586;10.040;2022-10-31T00:23:07;4.07;;;2.67;;
35679;SDS011;21803;53.586;10.040;2022-10-31T00:25:38;3.05;;;2.42;;
35679;SDS011;21803;53.586;10.040;2022-10-31T00:28:05;2.95;;;2.45;;
35679;SDS011;21803;53.586;10.040;2022-10-31T00:30:31;3.30;;;2.20;;
35679;SDS011;21803;53.586;10.040;2022-10-31T00:32:57;3.03;;;2.42;;
35679;SDS011;21803;53.586;10.040;2022-10-31T00:35:23;3.00;;;2.42;;
35679;SDS011;21803;53.586;10.040;2022-10-31T00:37:48;2.78;;;2.30;;
35679;SDS011;21803;53.586;10.040;2022-10-31T00:40:14;3.55;;;2.50;;
35679;SDS011;21803;53.586;10.040;2022-10-31T00:42:40;2.90;;;2.33;;
35679;SDS011;21803;53.586;10.040;2022-10-31T00:45:07;3.10;;;2.22;;
35679;SDS011;21803;53.586;10.040;2022-10-31T00:47:33;2.70;;;2.33;;
35679;SDS011;21803;53.586;10.040;2022-10-31T00:49:59;3.13;;;2.75;;
35679;SDS011;21803;53.586;10.040;2022-10-31T00:52:24;2.50;;;2.28;;
35679;SDS011;21803;53.586;10.040;2022-10-31T00:54:50;3.25;;;2.63;;
35679;SDS011;21803;53.586;10.040;2022-10-31T00:57:15;3.00;;;2.40;;
35679;SDS011;21803;53.586;10.040;2022-10-31T00:59:41;2.58;;;2.15;;
35679;SDS011;21803;53.586;10.040;2022-10-31T01:02:06;2.63;;;2.42;;
35679;SDS011;21803;53.586;10.040;2022-10-31T01:04:32;3.25;;;2.28;;
35679;SDS011;21803;53.586;10.040;2022-10-31T01:06:57;3.13;;;2.40;;
35679;SDS011;21803;53.586;10.040;2022-10-31T01:09:23;2.60;;;2.40;;
35679;SDS011;21803;53.586;10.040;2022-10-31T01:11:49;2.67;;;2.47;;
35679;SDS011;21803;53.586;10.040;2022-10-31T01:14:14;3.58;;;2.47;;
35679;SDS011;21803;53.586;10.040;2022-10-31T01:16:40;2.67;;;2.20;;
35679;SDS011;21803;53.586;10.040;2022-10-31T01:19:05;3.03;;;2.20;;
35679;SDS011;21803;53.586;10.040;2022-10-31T01:21:31;3.33;;;2.95;;
35679;SDS011;21803;53.586;10.040;2022-10-31T01:23:56;2.65;;;2.25;;
35679;SDS011;21803;53.586;10.040;2022-10-31T01:26:23;3.22;;;2.30;;
35679;SDS011;21803;53.586;10.040;2022-10-31T01:28:54;3.13;;;2.55;;
35679;SDS011;21803;53.586;10.040;2022-10-31T01:31:22;3.10;;;2.20;;
35679;SDS011;21803;53.586;10.040;2022-10-31T01:33:49;3.33;;;2.65;;
35679;SDS011;21803;53.586;10.040;2022-10-31T01:36:19;3.30;;;2.70;;
35679;SDS011;21803;53.586;10.040;2022-10-31T01:38:47;2.60;;;2.30;;
35679;SDS011;21803;53.586;10.040;2022-10-31T01:41:14;3.72;;;2.50;;
35679;SDS011;21803;53.586;10.040;2022-10-31T01:43:52;2.80;;;2.33;;
35679;SDS011;21803;53.586;10.040;2022-10-31T01:46:21;3.53;;;2.42;;
35679;SDS011;21803;53.586;10.040;2022-10-31T01:48:49;2.92;;;2.53;;
35679;SDS011;21803;53.586;10.040;2022-10-31T01:51:17;2.60;;;2.33;;
35679;SDS011;21803;53.586;10.040;2022-10-31T01:53:47;3.05;;;2.55;;
35679;SDS011;21803;53.586;10.040;2022-10-31T01:56:15;2.65;;;2.40;;
35679;SDS011;21803;53.586;10.040;2022-10-31T01:58:42;2.88;;;2.45;;
35679;SDS011;21803;53.586;10.040;2022-10-31T02:01:10;2.90;;;2.30;;
35679;SDS011;21803;53.586;10.040;2022-10-31T02:03:39;2.78;;;2.28;;
35679;SDS011;21803;53.586;10.040;2022-10-31T02:06:06;3.22;;;2.53;;
35679;SDS011;21803;53.586;10.040;2022-10-31T02:08:38;2.80;;;2.50;;
35679;SDS011;21803;53.586;10.040;2022-10-31T02:11:05;3.25;;;2.38;;
35679;SDS011;21803;53.586;10.040;2022-10-31T02:13:32;2.45;;;2.22;;
35679;SDS011;21803;53.586;10.040;2022-10-31T02:15:59;2.67;;;2.20;;
35679;SDS011;21803;53.586;10.040;2022-10-31T02:18:26;2.92;;;2.53;;
35679;SDS011;21803;53.586;10.040;2022-10-31T02:21:06;2.95;;;2.30;;
35679;SDS011;21803;53.586;10.040;2022-10-31T02:26:48;3.20;;;2.50;;
35679;SDS011;21803;53.586;10.040;2022-10-31T02:32:27;3.75;;;2.70;;
35679;SDS011;21803;53.586;10.040;2022-10-31T02:38:36;2.80;;;2.35;;
35679;SDS011;21803;53.586;10.040;2022-10-31T02:41:46;3.50;;;2.53;;
35679;SDS011;21803;53.586;10.040;2022-10-31T02:44:39;3.22;;;2.30;;
35679;SDS011;21803;53.586;10.040;2022-10-31T02:47:20;2.33;;;2.05;;
35679;SDS011;21803;53.586;10.040;2022-10-31T02:52:50;3.30;;;2.42;;
35679;SDS011;21803;53.586;10.040;2022-10-31T03:03:33;3.03;;;2.20;;
35679;SDS011;21803;53.586;10.040;2022-10-31T03:11:29;2.47;;;2.25;;
35679;SDS011;21803;53.586;10.040;2022-10-31T03:14:04;3.05;;;2.38;;
35679;SDS011;21803;53.586;10.040;2022-10-31T03:19:16;2.45;;;2.17;;
35679;SDS011;21803;53.586;10.040;2022-10-31T03:21:51;3.03;;;2.28;;
35679;SDS011;21803;53.586;10.040;2022-10-31T03:24:27;2.63;;;2.25;;
35679;SDS011;21803;53.586;10.040;2022-10-31T03:26:59;2.55;;;2.05;;
35679;SDS011;21803;53.586;10.040;2022-10-31T03:29:28;3.45;;;2.40;;
35679;SDS011;21803;53.586;10.040;2022-10-31T03:31:58;2.58;;;2.20;;
35679;SDS011;21803;53.586;10.040;2022-10-31T03:34:32;2.25;;;2.00;;
35679;SDS011;21803;53.586;10.040;2022-10-31T03:37:02;2.50;;;2.03;;
35679;SDS011;21803;53.586;10.040;2022-10-31T03:39:31;2.80;;;2.30;;
35679;SDS011;21803;53.586;10.040;2022-10-31T03:42:05;2.63;;;2.15;;
35679;SDS011;21803;53.586;10.040;2022-10-31T03:44:34;3.33;;;2.13;;
35679;SDS011;21803;53.586;10.040;2022-10-31T03:47:02;2.35;;;2.15;;
35679;SDS011;21803;53.586;10.040;2022-10-31T03:49:29;3.28;;;2.20;;
35679;SDS011;21803;53.586;10.040;2022-10-31T03:54:33;2.78;;;2.30;;
35679;SDS011;21803;53.586;10.040;2022-10-31T03:57:09;2.50;;;2.20;;
35679;SDS011;21803;53.586;10.040;2022-10-31T03:59:47;3.55;;;2.38;;
35679;SDS011;21803;53.586;10.040;2022-10-31T04:02:19;2.78;;;1.95;;
35679;SDS011;21803;53.586;10.040;2022-10-31T04:04:47;2.22;;;1.95;;
35679;SDS011;21803;53.586;10.040;2022-10-31T04:07:14;2.67;;;2.33;;
35679;SDS011;21803;53.586;10.040;2022-10-31T04:09:41;2.38;;;2.08;;
35679;SDS011;21803;53.586;10.040;2022-10-31T04:12:10;2.70;;;2.10;;
35679;SDS011;21803;53.586;10.040;2022-10-31T04:14:39;3.08;;;2.47;;
35679;SDS011;21803;53.586;10.040;2022-10-31T04:17:09;3.70;;;2.17;;
35679;SDS011;21803;53.586;10.040;2022-10-31T04:19:38;3.17;;;2.42;;
35679;SDS011;21803;53.586;10.040;2022-10-31T04:22:03;3.03;;;2.40;;
35679;SDS011;21803;53.586;10.040;2022-10-31T04:24:29;3.05;;;2.30;;
35679;SDS011;21803;53.586;10.040;2022-10-31T04:26:55;2.63;;;2.22;;
35679;SDS011;21803;53.586;10.040;2022-10-31T04:29:20;3.20;;;2.47;;
35679;SDS011;21803;53.586;10.040;2022-10-31T04:31:45;2.40;;;2.17;;
35679;SDS011;21803;53.586;10.040;2022-10-31T04:34:11;2.05;;;1.85;;
35679;SDS011;21803;53.586;10.040;2022-10-31T04:36:37;2.63;;;2.10;;
35679;SDS011;21803;53.586;10.040;2022-10-31T04:39:02;3.90;;;2.40;;
35679;SDS011;21803;53.586;10.040;2022-10-31T04:41:28;2.90;;;2.10;;
35679;SDS011;21803;53.586;10.040;2022-10-31T04:43:53;2.88;;;2.10;;
35679;SDS011;21803;53.586;10.040;2022-10-31T04:46:19;2.63;;;2.10;;
35679;SDS011;21803;53.586;10.040;2022-10-31T04:48:45;2.83;;;2.20;;
35679;SDS011;21803;53.586;10.040;2022-10-31T04:51:10;2.38;;;2.17;;
35679;SDS011;21803;53.586;10.040;2022-10-31T04:53:36;2.47;;;2.20;;
35679;SDS011;21803;53.586;10.040;2022-10-31T04:56:01;2.38;;;1.88;;
35679;SDS011;21803;53.586;10.040;2022-10-31T04:58:27;2.45;;;2.17;;
35679;SDS011;21803;53.586;10.040;2022-10-31T05:00:54;2.55;;;2.15;;
35679;SDS011;21803;53.586;10.040;2022-10-31T05:03:20;2.83;;;2.33;;
35679;SDS011;21803;53.586;10.040;2022-10-31T05:05:46;2.40;;;2.20;;
35679;SDS011;21803;53.586;10.040;2022-10-31T05:08:12;2.78;;;2.08;;
35679;SDS011;21803;53.586;10.040;2022-10-31T05:10:38;2.20;;;2.00;;
35679;SDS011;21803;53.586;10.040;2022-10-31T05:13:04;2.05;;;1.85;;
35679;SDS011;21803;53.586;10.040;2022-10-31T05:15:30;2.03;;;1.83;;
35679;SDS011;21803;53.586;10.040;2022-10-31T05:17:56;2.35;;;1.98;;
35679;SDS011;21803;53.586;10.040;2022-10-31T05:20:23;2.38;;;2.00;;
35679;SDS011;21803;53.586;10.040;2022-10-31T05:22:51;2.70;;;2.10;;
35679;SDS011;21803;53.586;10.040;2022-10-31T05:25:19;2.28;;;2.00;;
35679;SDS011;21803;53.586;10.040;2022-10-31T05:27:46;2.08;;;1.88;;
35679;SDS011;21803;53.586;10.040;2022-10-31T05:30:13;2.40;;;2.20;;
35679;SDS011;21803;53.586;10.040;2022-10-31T05:32:42;2.58;;;2.20;;
35679;SDS011;21803;53.586;10.040;2022-10-31T05:35:11;3.72;;;2.15;;
35679;SDS011;21803;53.586;10.040;2022-10-31T05:37:38;2.53;;;2.00;;
35679;SDS011;21803;53.586;10.040;2022-10-31T05:40:05;2.88;;;2.28;;
35679;SDS011;21803;53.586;10.040;2022-10-31T05:42:33;2.22;;;2.03;;
35679;SDS011;21803;53.586;10.040;2022-10-31T05:44:59;2.60;;;2.00;;
35679;SDS011;21803;53.586;10.040;2022-10-31T05:47:25;3.17;;;2.08;;
35679;SDS011;21803;53.586;10.040;2022-10-31T05:49:50;2.47;;;1.88;;
35679;SDS011;21803;53.586;10.040;2022-10-31T05:52:16;2.60;;;1.92;;
35679;SDS011;21803;53.586;10.040;2022-10-31T05:54:42;2.78;;;2.20;;
35679;SDS011;21803;53.586;10.040;2022-10-31T05:57:08;2.28;;;2.00;;
35679;SDS011;21803;53.586;10.040;2022-10-31T05:59:33;2.67;;;1.92;;
35679;SDS011;21803;53.586;10.040;2022-10-31T06:01:59;2.40;;;2.00;;
35679;SDS011;21803;53.586;10.040;2022-10-31T06:04:24;2.58;;;1.90;;
35679;SDS011;21803;53.586;10.040;2022-10-31T06:06:50;2.20;;;1.90;;
35679;SDS011;21803;53.586;10.040;2022-10-31T06:09:15;1.85;;;1.73;;
35679;SDS011;21803;53.586;10.040;2022-10-31T06:11:41;2.45;;;1.83;;
35679;SDS011;21803;53.586;10.040;2022-10-31T06:14:06;3.38;;;2.33;;
35679;SDS011;21803;53.586;10.040;2022-10-31T06:16:32;2.13;;;1.92;;
35679;SDS011;21803;53.586;10.040;2022-10-31T06:18:57;3.30;;;2.00;;
35679;SDS011;21803;53.586;10.040;2022-10-31T06:21:23;2.08;;;1.75;;
35679;SDS011;21803;53.586;10.040;2022-10-31T06:23:49;2.10;;;1.80;;
35679;SDS011;21803;53.586;10.040;2022-10-31T06:26:15;2.60;;;2.00;;
35679;SDS011;21803;53.586;10.040;2022-10-31T06:28:40;2.70;;;1.80;;
35679;SDS011;21803;53.586;10.040;2022-10-31T06:31:06;2.47;;;2.10;;
35679;SDS011;21803;53.586;10.040;2022-10-31T06:33:32;2.20;;;1.90;;
35679;SDS011;21803;53.586;10.040;2022-10-31T06:35:58;2.30;;;2.00;;
35679;SDS011;21803;53.586;10.040;2022-10-31T06:38:25;2.10;;;1.90;;
35679;SDS011;21803;53.586;10.040;2022-10-31T06:40:51;2.20;;;1.85;;
35679;SDS011;21803;53.586;10.040;2022-10-31T06:43:17;2.35;;;2.00;;
35679;SDS011;21803;53.586;10.040;2022-10-31T06:45:42;2.00;;;1.80;;
35679;SDS011;21803;53.586;10.040;2022-10-31T06:48:08;2.60;;;2.00;;
35679;SDS011;21803;53.586;10.040;2022-10-31T06:50:34;2.10;;;1.90;;
35679;SDS011;21803;53.586;10.040;2022-10-31T06:52:59;2.38;;;1.80;;
35679;SDS011;21803;53.586;10.040;2022-10-31T06:55:25;2.30;;;1.98;;
35679;SDS011;21803;53.586;10.040;2022-10-31T06:57:52;2.60;;;2.00;;
35679;SDS011;21803;53.586;10.040;2022-10-31T07:00:19;2.75;;;2.22;;
35679;SDS011;21803;53.586;10.040;2022-10-31T07:02:54;2.20;;;1.83;;
35679;SDS011;21803;53.586;10.040;2022-10-31T07:05:21;2.67;;;2.03;;
35679;SDS011;21803;53.586;10.040;2022-10-31T07:07:47;2.22;;;1.90;;
35679;SDS011;21803;53.586;10.040;2022-10-31T07:10:12;2.17;;;1.83;;
35679;SDS011;21803;53.586;10.040;2022-10-31T07:12:38;2.10;;;1.90;;
35679;SDS011;21803;53.586;10.040;2022-10-31T07:15:04;2.03;;;1.52;;
35679;SDS011;21803;53.586;10.040;2022-10-31T07:17:30;2.78;;;1.90;;
35679;SDS011;21803;53.586;10.040;2022-10-31T07:19:55;2.13;;;1.92;;
35679;SDS011;21803;53.586;10.040;2022-10-31T07:22:21;2.78;;;2.13;;
35679;SDS011;21803;53.586;10.040;2022-10-31T07:24:46;2.13;;;1.80;;
35679;SDS011;21803;53.586;10.040;2022-10-31T07:27:12;2.22;;;1.80;;
35679;SDS011;21803;53.586;10.040;2022-10-31T07:29:37;3.00;;;1.73;;
35679;SDS011;21803;53.586;10.040;2022-10-31T07:32:03;2.30;;;1.90;;
35679;SDS011;21803;53.586;10.040;2022-10-31T07:34:28;1.65;;;1.55;;
35679;SDS011;21803;53.586;10.040;2022-10-31T07:36:54;1.95;;;1.77;;
35679;SDS011;21803;53.586;10.040;2022-10-31T07:39:19;1.90;;;1.70;;
35679;SDS011;21803;53.586;10.040;2022-10-31T07:41:45;2.10;;;1.80;;
35679;SDS011;21803;53.586;10.040;2022-10-31T07:44:11;2.55;;;1.90;;
35679;SDS011;21803;53.586;10.040;2022-10-31T07:46:36;2.20;;;1.63;;
35679;SDS011;21803;53.586;10.040;2022-10-31T07:49:02;2.08;;;1.80;;
35679;SDS011;21803;53.586;10.040;2022-10-31T07:51:27;1.60;;;1.50;;
35679;SDS011;21803;53.586;10.040;2022-10-31T07:53:53;1.90;;;1.70;;
35679;SDS011;21803;53.586;10.040;2022-10-31T07:56:18;2.65;;;1.95;;
35679;SDS011;21803;53.586;10.040;2022-10-31T07:58:44;2.38;;;1.95;;
35679;SDS011;21803;53.586;10.040;2022-10-31T08:01:10;2.28;;;1.75;;
35679;SDS011;21803;53.586;10.040;2022-10-31T08:03:35;2.38;;;1.77;;
35679;SDS011;21803;53.586;10.040;2022-10-31T08:06:01;2.05;;;1.85;;
35679;SDS011;21803;53.586;10.040;2022-10-31T08:08:26;1.98;;;1.77;;
35679;SDS011;21803;53.586;10.040;2022-10-31T08:10:53;2.28;;;1.70;;
35679;SDS011;21803;53.586;10.040;2022-10-31T08:13:19;3.63;;;1.75;;
35679;SDS011;21803;53.586;10.040;2022-10-31T08:15:45;2.10;;;1.90;;
35679;SDS011;21803;53.586;10.040;2022-10-31T08:18:15;1.80;;;1.70;;
35679;SDS011;21803;53.586;10.040;2022-10-31T08:20:41;2.67;;;1.80;;
35679;SDS011;21803;53.586;10.040;2022-10-31T08:23:08;1.88;;;1.60;;
35679;SDS011;21803;53.586;10.040;2022-10-31T08:25:35;2.15;;;1.73;;
35679;SDS011;21803;53.586;10.040;2022-10-31T08:28:01;2.22;;;1.70;;
35679;SDS011;21803;53.586;10.040;2022-10-31T08:30:28;3.08;;;1.85;;
35679;SDS011;21803;53.586;10.040;2022-10-31T08:32:58;2.22;;;1.70;;
35679;SDS011;21803;53.586;10.040;2022-10-31T08:35:33;2.40;;;1.80;;
35679;SDS011;21803;53.586;10.040;2022-10-31T08:37:58;2.10;;;1.88;;
35679;SDS011;21803;53.586;10.040;2022-10-31T08:40:25;2.40;;;2.00;;
35679;SDS011;21803;53.586;10.040;2022-10-31T08:45:24;1.70;;;1.60;;
35679;SDS011;21803;53.586;10.040;2022-10-31T08:47:50;2.00;;;1.80;;
35679;SDS011;21803;53.586;10.040;2022-10-31T08:50:16;1.73;;;1.52;;
35679;SDS011;21803;53.586;10.040;2022-10-31T08:52:41;2.22;;;1.80;;
35679;SDS011;21803;53.586;10.040;2022-10-31T08:55:07;2.15;;;1.65;;
35679;SDS011;21803;53.586;10.040;2022-10-31T08:57:33;2.08;;;1.83;;
35679;SDS011;21803;53.586;10.040;2022-10-31T08:59:58;1.65;;;1.50;;
35679;SDS011;21803;53.586;10.040;2022-10-31T09:02:24;1.52;;;1.42;;
35679;SDS011;21803;53.586;10.040;2022-10-31T09:04:49;2.28;;;1.90;;
35679;SDS011;21803;53.586;10.040;2022-10-31T09:07:15;2.10;;;1.70;;
35679;SDS011;21803;53.586;10.040;2022-10-31T09:09:40;2.17;;;1.73;;
35679;SDS011;21803;53.586;10.040;2022-10-31T09:12:06;2.22;;;1.80;;
35679;SDS011;21803;53.586;10.040;2022-10-31T09:14:31;2.00;;;1.60;;
35679;SDS011;21803;53.586;10.040;2022-10-31T09:16:57;2.10;;;1.80;;
35679;SDS011;21803;53.586;10.040;2022-10-31T09:19:22;1.98;;;1.77;;
35679;SDS011;21803;53.586;10.040;2022-10-31T09:21:51;2.00;;;1.67;;
35679;SDS011;21803;53.586;10.040;2022-10-31T09:24:17;2.63;;;1.90;;
35679;SDS011;21803;53.586;10.040;2022-10-31T09:26:43;2.00;;;1.80;;
35679;SDS011;21803;53.586;10.040;2022-10-31T09:29:08;2.10;;;1.65;;
35679;SDS011;21803;53.586;10.040;2022-10-31T09:31:34;2.10;;;1.90;;
35679;SDS011;21803;53.586;10.040;2022-10-31T09:34:00;1.77;;;1.60;;
35679;SDS011;21803;53.586;10.040;2022-10-31T09:36:26;2.40;;;1.67;;
35679;SDS011;21803;53.586;10.040;2022-10-31T09:38:51;1.90;;;1.60;;
35679;SDS011;21803;53.586;10.040;2022-10-31T09:46:39;2.40;;;1.65;;
35679;SDS011;21803;53.586;10.040;2022-10-31T09:52:17;1.83;;;1.67;;
35679;SDS011;21803;53.586;10.040;2022-10-31T09:55:00;2.08;;;1.75;;
35679;SDS011;21803;53.586;10.040;2022-10-31T09:57:32;2.03;;;1.80;;
35679;SDS011;21803;53.586;10.040;2022-10-31T09:59:59;1.80;;;1.60;;
35679;SDS011;21803;53.586;10.040;2022-10-31T10:02:36;2.78;;;1.65;;
35679;SDS011;21803;53.586;10.040;2022-10-31T10:05:10;2.30;;;1.85;;
35679;SDS011;21803;53.586;10.040;2022-10-31T10:07:40;1.95;;;1.50;;
35679;SDS011;21803;53.586;10.040;2022-10-31T10:10:25;1.75;;;1.60;;
35679;SDS011;21803;53.586;10.040;2022-10-31T10:21:11;1.75;;;1.60;;
35679;SDS011;21803;53.586;10.040;2022-10-31T10:24:03;2.40;;;1.63;;
35679;SDS011;21803;53.586;10.040;2022-10-31T10:27:00;2.50;;;1.95;;
35679;SDS011;21803;53.586;10.040;2022-10-31T10:32:20;2.03;;;1.73;;
35679;SDS011;21803;53.586;10.040;2022-10-31T10:35:00;1.77;;;1.52;;
35679;SDS011;21803;53.586;10.040;2022-10-31T10:37:37;1.95;;;1.75;;
35679;SDS011;21803;53.586;10.040;2022-10-31T10:40:21;1.95;;;1.40;;
35679;SDS011;21803;53.586;10.040;2022-10-31T10:42:59;3.35;;;1.90;;
35679;SDS011;21803;53.586;10.040;2022-10-31T10:45:45;2.45;;;2.10;;
35679;SDS011;21803;53.586;10.040;2022-10-31T10:51:46;2.83;;;1.88;;
35679;SDS011;21803;53.586;10.040;2022-10-31T10:54:42;2.95;;;2.03;;
35679;SDS011;21803;53.586;10.040;2022-10-31T10:59:38;2.67;;;1.90;;
35679;SDS011;21803;53.586;10.040;2022-10-31T11:02:13;2.67;;;1.80;;
35679;SDS011;21803;53.586;10.040;2022-10-31T11:04:48;2.70;;;1.95;;
35679;SDS011;21803;53.586;10.040;2022-10-31T11:07:16;2.67;;;1.90;;
35679;SDS011;21803;53.586;10.040;2022-10-31T11:09:42;3.95;;;1.98;;
35679;SDS011;21803;53.586;10.040;2022-10-31T11:12:08;6.55;;;2.00;;
35679;SDS011;21803;53.586;10.040;2022-10-31T11:14:44;2.78;;;1.98;;
35679;SDS011;21803;53.586;10.040;2022-10-31T11:17:30;2.13;;;1.65;;
35679;SDS011;21803;53.586;10.040;2022-10-31T11:20:16;1.90;;;1.70;;
35679;SDS011;21803;53.586;10.040;2022-10-31T11:22:46;2.67;;;1.73;;
35679;SDS011;21803;53.586;10.040;2022-10-31T11:27:45;5.13;;;1.90;;
35679;SDS011;21803;53.586;10.040;2022-10-31T11:30:12;2.40;;;1.90;;
35679;SDS011;21803;53.586;10.040;2022-10-31T11:32:47;2.40;;;1.65;;
35679;SDS011;21803;53.586;10.040;2022-10-31T11:35:17;3.25;;;1.60;;
35679;SDS011;21803;53.586;10.040;2022-10-31T11:37:45;4.18;;;1.63;;
35679;SDS011;21803;53.586;10.040;2022-10-31T11:40:23;2.70;;;1.65;;
35679;SDS011;21803;53.586;10.040;2022-10-31T11:42:50;1.80;;;1.48;;
35679;SDS011;21803;53.586;10.040;2022-10-31T11:47:48;4.55;;;1.90;;
35679;SDS011;21803;53.586;10.040;2022-10-31T11:50:19;2.42;;;1.50;;
35679;SDS011;21803;53.586;10.040;2022-10-31T11:52:51;2.13;;;1.52;;
35679;SDS011;21803;53.586;10.040;2022-10-31T11:55:32;2.47;;;1.80;;
35679;SDS011;21803;53.586;10.040;2022-10-31T11:58:00;2.53;;;1.70;;
35679;SDS011;21803;53.586;10.040;2022-10-31T12:00:38;3.05;;;1.65;;
35679;SDS011;21803;53.586;10.040;2022-10-31T12:03:20;2.88;;;1.85;;
35679;SDS011;21803;53.586;10.040;2022-10-31T12:05:49;2.90;;;2.08;;
35679;SDS011;21803;53.586;10.040;2022-10-31T12:08:20;2.17;;;1.80;;
35679;SDS011;21803;53.586;10.040;2022-10-31T12:11:05;5.60;;;2.03;;
35679;SDS011;21803;53.586;10.040;2022-10-31T12:13:51;2.38;;;1.70;;
35679;SDS011;21803;53.586;10.040;2022-10-31T12:16:39;2.80;;;1.48;;
35679;SDS011;21803;53.586;10.040;2022-10-31T12:22:13;1.73;;;1.60;;
35679;SDS011;21803;53.586;10.040;2022-10-31T12:31:12;3.78;;;1.73;;
35679;SDS011;21803;53.586;10.040;2022-10-31T12:33:53;2.05;;;1.67;;
35679;SDS011;21803;53.586;10.040;2022-10-31T12:39:07;2.30;;;1.77;;
35679;SDS011;21803;53.586;10.040;2022-10-31T12:50:12;1.85;;;1.45;;
35679;SDS011;21803;53.586;10.040;2022-10-31T12:52:59;2.13;;;1.77;;
35679;SDS011;21803;53.586;10.040;2022-10-31T12:58:22;2.25;;;2.00;;
35679;SDS011;21803;53.586;10.040;2022-10-31T13:01:05;3.00;;;1.60;;
35679;SDS011;21803;53.586;10.040;2022-10-31T13:03:57;3.33;;;1.85;;
35679;SDS011;21803;53.586;10.040;2022-10-31T13:06:29;1.90;;;1.70;;
35679;SDS011;21803;53.586;10.040;2022-10-31T13:09:01;2.67;;;1.80;;
35679;SDS011;21803;53.586;10.040;2022-10-31T13:11:32;2.90;;;1.80;;
35679;SDS011;21803;53.586;10.040;2022-10-31T13:14:05;1.77;;;1.50;;
35679;SDS011;21803;53.586;10.040;2022-10-31T13:16:50;2.20;;;1.80;;
35679;SDS011;21803;53.586;10.040;2022-10-31T13:19:17;3.33;;;1.85;;
35679;SDS011;21803;53.586;10.040;2022-10-31T13:21:51;1.95;;;1.75;;
35679;SDS011;21803;53.586;10.040;2022-10-31T13:27:28;2.38;;;1.75;;
35679;SDS011;21803;53.586;10.040;2022-10-31T13:30:03;3.63;;;1.70;;
35679;SDS011;21803;53.586;10.040;2022-10-31T13:33:07;2.75;;;1.88;;
35679;SDS011;21803;53.586;10.040;2022-10-31T13:40:57;1.92;;;1.65;;
35679;SDS011;21803;53.586;10.040;2022-10-31T13:43:32;2.10;;;1.70;;
35679;SDS011;21803;53.586;10.040;2022-10-31T13:48:58;2.33;;;2.05;;
35679;SDS011;21803;53.586;10.040;2022-10-31T13:51:25;2.92;;;1.95;;
35679;SDS011;21803;53.586;10.040;2022-10-31T13:54:22;2.67;;;2.28;;
35679;SDS011;21803;53.586;10.040;2022-10-31T13:56:50;2.10;;;1.90;;
35679;SDS011;21803;53.586;10.040;2022-10-31T13:59:18;3.15;;;1.70;;
35679;SDS011;21803;53.586;10.040;2022-10-31T14:01:47;2.10;;;1.90;;
35679;SDS011;21803;53.586;10.040;2022-10-31T14:04:20;2.70;;;1.90;;
35679;SDS011;21803;53.586;10.040;2022-10-31T14:12:14;2.42;;;1.80;;
35679;SDS011;21803;53.586;10.040;2022-10-31T14:14:54;2.42;;;2.03;;
35679;SDS011;21803;53.586;10.040;2022-10-31T14:17:27;3.03;;;2.00;;
35679;SDS011;21803;53.586;10.040;2022-10-31T14:22:35;3.25;;;2.00;;
35679;SDS011;21803;53.586;10.040;2022-10-31T14:25:24;2.65;;;2.17;;
35679;SDS011;21803;53.586;10.040;2022-10-31T14:27:50;2.17;;;1.90;;
35679;SDS011;21803;53.586;10.040;2022-10-31T14:30:18;2.28;;;2.08;;
35679;SDS011;21803;53.586;10.040;2022-10-31T14:33:00;2.70;;;2.17;;
35679;SDS011;21803;53.586;10.040;2022-10-31T14:35:46;2.47;;;2.00;;
35679;SDS011;21803;53.586;10.040;2022-10-31T14:46:36;2.22;;;1.95;;
35679;SDS011;21803;53.586;10.040;2022-10-31T14:49:42;2.60;;;2.20;;
35679;SDS011;21803;53.586;10.040;2022-10-31T14:52:16;2.13;;;1.92;;
35679;SDS011;21803;53.586;10.040;2022-10-31T14:54:50;2.85;;;2.20;;
35679;SDS011;21803;53.586;10.040;2022-10-31T14:59:48;3.58;;;2.20;;
35679;SDS011;21803;53.586;10.040;2022-10-31T15:03:12;2.47;;;2.28;;
35679;SDS011;21803;53.586;10.040;2022-10-31T15:05:59;2.80;;;2.20;;
35679;SDS011;21803;53.586;10.040;2022-10-31T15:09:01;2.25;;;1.80;;
35679;SDS011;21803;53.586;10.040;2022-10-31T15:11:21;2.47;;;2.10;;
35679;SDS011;21803;53.586;10.040;2022-10-31T15:13:50;2.28;;;1.95;;
35679;SDS011;21803;53.586;10.040;2022-10-31T15:18:57;4.25;;;2.40;;
35679;SDS011;21803;53.586;10.040;2022-10-31T15:21:25;2.80;;;2.15;;
35679;SDS011;21803;53.586;10.040;2022-10-31T15:23:53;2.42;;;2.15;;
35679;SDS011;21803;53.586;10.040;2022-10-31T15:26:24;2.63;;;2.10;;
35679;SDS011;21803;53.586;10.040;2022-10-31T15:28:57;2.92;;;2.10;;
35679;SDS011;21803;53.586;10.040;2022-10-31T15:31:27;2.63;;;2.28;;
35679;SDS011;21803;53.586;10.040;2022-10-31T15:33:54;3.00;;;2.35;;
35679;SDS011;21803;53.586;10.040;2022-10-31T15:36:25;2.70;;;2.20;;
35679;SDS011;21803;53.586;10.040;2022-10-31T15:38:51;3.35;;;2.42;;
35679;SDS011;21803;53.586;10.040;2022-10-31T15:41:42;3.10;;;2.28;;
35679;SDS011;21803;53.586;10.040;2022-10-31T15:44:21;3.10;;;2.40;;
35679;SDS011;21803;53.586;10.040;2022-10-31T15:46:52;3.17;;;2.50;;
35679;SDS011;21803;53.586;10.040;2022-10-31T15:55:03;3.53;;;2.10;;
35679;SDS011;21803;53.586;10.040;2022-10-31T15:57:41;2.75;;;2.40;;
35679;SDS011;21803;53.586;10.040;2022-10-31T16:05:49;2.97;;;2.30;;
35679;SDS011;21803;53.586;10.040;2022-10-31T16:10:58;2.85;;;2.28;;
35679;SDS011;21803;53.586;10.040;2022-10-31T16:13:29;2.97;;;2.20;;
35679;SDS011;21803;53.586;10.040;2022-10-31T16:15:57;2.55;;;2.10;;
35679;SDS011;21803;53.586;10.040;2022-10-31T16:18:29;3.42;;;2.42;;
35679;SDS011;21803;53.586;10.040;2022-10-31T16:21:02;3.78;;;2.10;;
35679;SDS011;21803;53.586;10.040;2022-10-31T16:23:28;2.50;;;2.30;;
35679;SDS011;21803;53.586;10.040;2022-10-31T16:25:54;3.22;;;2.15;;
35679;SDS011;21803;53.586;10.040;2022-10-31T16:28:28;2.17;;;1.98;;
35679;SDS011;21803;53.586;10.040;2022-10-31T16:30:55;3.30;;;2.42;;
35679;SDS011;21803;53.586;10.040;2022-10-31T16:36:12;2.83;;;2.45;;
35679;SDS011;21803;53.586;10.040;2022-10-31T16:38:52;2.22;;;1.98;;
35679;SDS011;21803;53.586;10.040;2022-10-31T16:41:27;3.28;;;2.25;;
35679;SDS011;21803;53.586;10.040;2022-10-31T16:43:53;2.22;;;2.03;;
35679;SDS011;21803;53.586;10.040;2022-10-31T16:46:21;2.50;;;2.00;;
35679;SDS011;21803;53.586;10.040;2022-10-31T16:48:48;2.67;;;2.03;;
35679;SDS011;21803;53.586;10.040;2022-10-31T16:51:14;3.28;;;2.40;;
35679;SDS011;21803;53.586;10.040;2022-10-31T16:53:39;2.60;;;2.13;;
35679;SDS011;21803;53.586;10.040;2022-10-31T16:56:05;2.72;;;2.20;;
35679;SDS011;21803;53.586;10.040;2022-10-31T16:58:42;2.63;;;2.30;;
35679;SDS011;21803;53.586;10.040;2022-10-31T17:01:09;2.50;;;2.30;;
35679;SDS011;21803;53.586;10.040;2022-10-31T17:03:37;2.75;;;2.05;;
35679;SDS011;21803;53.586;10.040;2022-10-31T17:06:03;2.45;;;2.08;;
35679;SDS011;21803;53.586;10.040;2022-10-31T17:08:28;3.00;;;1.90;;